Time;durP1;ratioP1;P1;durP2;ratioP2;P2;SDS_P1;SDS_P2;PMS_P1;PMS_P2;Temp;Humidity;BMP_temperature;BMP_pressure;BME280_temperature;BME280_humidity;BME280_pressure;Samples;Min_cycle;Max_cycle;Signal;HPM_P1;HPM_P2
2022/04/01 00:00:12;;;;;;;0.60;0.60;;;17.10;39.30;16.30;100017.00;;;;5046975;28;20049;-65
2022/04/01 00:02:58;;;;;;;0.82;0.60;;;17.10;39.30;16.30;100016.00;;;;5055678;28;20520;-65
2022/04/01 00:05:44;;;;;;;0.70;0.52;;;17.00;39.30;16.30;100029.00;;;;5054138;28;20567;-65
2022/04/01 00:08:30;;;;;;;0.50;0.50;;;17.10;39.30;16.30;100013.00;;;;5072955;28;20051;-65
2022/04/01 00:11:17;;;;;;;0.88;0.70;;;17.00;39.30;16.30;100017.00;;;;5046975;28;20076;-65
2022/04/01 00:14:03;;;;;;;2.17;0.68;;;17.00;39.40;16.20;100017.00;;;;5058940;28;20129;-66
2022/04/01 00:16:49;;;;;;;7.53;0.70;;;17.00;39.30;16.30;100015.00;;;;5048512;28;20101;-66
2022/04/01 00:19:35;;;;;;;4.35;0.60;;;17.00;39.30;16.20;100026.00;;;;5062233;28;20040;-66
2022/04/01 00:22:21;;;;;;;3.97;0.75;;;17.00;39.30;16.20;100022.00;;;;5064438;28;20173;-65
2022/04/01 00:25:07;;;;;;;2.60;0.60;;;17.00;39.30;16.20;100021.00;;;;5065267;28;20075;-66
2022/04/01 00:27:54;;;;;;;2.15;0.70;;;17.00;39.30;16.20;100025.00;;;;5043240;28;20287;-66
2022/04/01 00:30:40;;;;;;;0.75;0.50;;;17.00;39.30;16.20;100033.00;;;;5053262;28;20468;-66
2022/04/01 00:33:27;;;;;;;1.52;0.70;;;17.00;39.20;16.20;100029.00;;;;5062939;28;20043;-65
2022/04/01 00:36:14;;;;;;;3.08;0.90;;;17.00;39.30;16.20;100020.00;;;;5045765;28;20084;-65
2022/04/01 00:39:00;;;;;;;2.20;0.68;;;17.00;39.30;16.20;100025.00;;;;5053536;28;20406;-65
2022/04/01 00:41:46;;;;;;;1.38;0.70;;;16.90;39.20;16.20;100019.00;;;;5044073;28;20040;-66
2022/04/01 00:44:36;;;;;;;1.60;0.60;;;17.00;39.20;16.20;100034.00;;;;5045854;28;20044;-66
2022/04/01 00:47:22;;;;;;;0.60;0.50;;;17.00;39.20;16.20;100045.00;;;;5040653;28;20045;-66
2022/04/01 00:50:08;;;;;;;1.50;0.80;;;17.00;39.30;16.20;100035.00;;;;5059307;28;20052;-66
2022/04/01 00:52:54;;;;;;;0.93;0.70;;;17.00;39.20;16.20;100043.00;;;;5055791;28;20650;-66
2022/04/01 00:55:40;;;;;;;0.75;0.50;;;17.00;39.20;16.20;100043.00;;;;5054782;28;20049;-65
2022/04/01 00:58:26;;;;;;;0.90;0.70;;;17.00;39.30;16.20;100054.00;;;;5061011;28;20040;-66
2022/04/01 01:01:12;;;;;;;1.27;0.88;;;17.00;39.30;16.10;100055.00;;;;5043213;28;20478;-66
2022/04/01 01:04:07;;;;;;;0.60;0.60;;;17.00;39.30;16.10;100056.00;;;;5059929;28;20040;-65
2022/04/01 01:06:56;;;;;;;1.25;0.90;;;17.00;39.20;16.10;100056.00;;;;5043915;28;20044;-65
2022/04/01 01:09:43;;;;;;;3.30;0.90;;;16.90;39.20;16.10;100056.00;;;;5044190;28;20474;-65
2022/04/01 01:12:29;;;;;;;1.67;0.63;;;16.90;39.10;16.10;100061.00;;;;5054318;28;20041;-66
2022/04/01 01:15:18;;;;;;;0.93;0.75;;;16.90;39.20;16.10;100056.00;;;;5059746;28;20044;-66
2022/04/01 01:18:05;;;;;;;4.18;1.00;;;16.90;39.20;16.10;100053.00;;;;5058705;28;20516;-66
2022/04/01 01:20:51;;;;;;;2.50;0.90;;;16.90;39.20;16.10;100063.00;;;;5038412;28;20045;-66
2022/04/01 01:23:38;;;;;;;1.15;0.75;;;16.90;39.20;16.10;100066.00;;;;5042278;28;20033;-66
2022/04/01 01:26:24;;;;;;;1.27;0.70;;;16.90;39.20;16.10;100070.00;;;;5045552;28;20486;-66
2022/04/01 01:29:10;;;;;;;0.63;0.57;;;16.90;39.20;16.10;100070.00;;;;5054647;28;20075;-66
2022/04/01 01:32:02;;;;;;;0.93;0.73;;;16.90;39.20;16.10;100068.00;;;;5053660;28;20047;-66
2022/04/01 01:34:48;;;;;;;2.05;0.50;;;16.90;39.30;16.10;100067.00;;;;5047138;28;20083;-66
2022/04/01 01:37:34;;;;;;;0.82;0.73;;;16.90;39.30;16.10;100062.00;;;;5045433;28;20464;-66
2022/04/01 01:40:20;;;;;;;1.38;0.77;;;16.90;39.30;16.10;100074.00;;;;5046602;28;20060;-65
2022/04/01 01:43:07;;;;;;;1.30;0.60;;;16.90;39.30;16.10;100065.00;;;;5040646;28;20047;-66
2022/04/01 01:45:53;;;;;;;0.98;0.80;;;16.90;39.30;16.10;100065.00;;;;5059844;28;20556;-66
2022/04/01 01:48:39;;;;;;;2.40;0.90;;;16.90;39.30;16.10;100078.00;;;;5049570;28;20039;-66
2022/04/01 01:54:50;;;;;;;0.98;0.80;;;16.90;39.30;16.10;100083.00;;;;5057583;28;20044;-66
2022/04/01 01:57:36;;;;;;;0.73;0.63;;;16.90;39.30;16.00;100084.00;;;;5052713;28;20503;-65
2022/04/01 02:00:22;;;;;;;0.82;0.50;;;16.90;39.30;16.00;100091.00;;;;5056524;28;20145;-66
2022/04/01 02:03:10;;;;;;;1.00;0.77;;;16.90;39.40;16.00;100078.00;;;;5039752;28;20156;-66
2022/04/01 02:05:56;;;;;;;0.93;0.55;;;16.90;39.30;16.00;100085.00;;;;5048427;28;20040;-66
2022/04/01 02:08:43;;;;;;;0.90;0.57;;;16.80;39.30;16.00;100087.00;;;;5057188;28;20458;-65
2022/04/01 02:11:29;;;;;;;0.93;0.65;;;16.80;39.30;16.00;100084.00;;;;5057586;28;20049;-65
2022/04/01 02:14:15;;;;;;;1.15;0.50;;;16.80;39.30;16.00;100095.00;;;;5049340;28;20040;-65
2022/04/01 02:17:01;;;;;;;0.82;0.63;;;16.80;39.30;16.00;100099.00;;;;5053505;28;20044;-66
2022/04/01 02:19:49;;;;;;;0.73;0.70;;;16.80;39.30;16.00;100091.00;;;;5052755;28;20123;-66
2022/04/01 02:22:38;;;;;;;1.10;0.60;;;16.80;39.30;16.00;100100.00;;;;5066550;28;20488;-66
2022/04/01 02:25:24;;;;;;;1.17;1.00;;;16.80;39.30;16.00;100099.00;;;;5057453;28;20457;-66
2022/04/01 02:28:12;;;;;;;1.17;0.80;;;16.80;39.30;16.00;100090.00;;;;5055010;28;20139;-65
2022/04/01 02:30:58;;;;;;;0.52;0.52;;;16.80;39.30;16.00;100101.00;;;;5058925;28;20036;-66
2022/04/01 02:33:44;;;;;;;1.02;0.75;;;16.80;39.30;16.00;100097.00;;;;5063266;28;20039;-65
2022/04/01 02:36:30;;;;;;;1.20;0.57;;;16.90;39.30;16.00;100106.00;;;;5053403;28;20053;-65
2022/04/01 02:39:16;;;;;;;0.65;0.47;;;16.80;39.30;16.00;100099.00;;;;5042801;28;20066;-65
2022/04/01 02:42:03;;;;;;;0.90;0.50;;;16.80;39.30;16.00;100110.00;;;;5059576;28;20095;-65
2022/04/01 02:44:49;;;;;;;0.68;0.68;;;16.80;39.30;16.00;100102.00;;;;5061745;28;20049;-65
2022/04/01 02:47:35;;;;;;;0.70;0.57;;;16.80;39.30;16.00;100110.00;;;;5065394;28;20044;-66
2022/04/01 02:50:21;;;;;;;0.65;0.50;;;16.80;39.30;16.00;100110.00;;;;5048142;28;20098;-65
2022/04/01 02:53:07;;;;;;;0.47;0.47;;;16.80;39.40;16.00;100116.00;;;;5065739;28;20143;-65
2022/04/01 02:55:53;;;;;;;0.50;0.50;;;16.80;39.40;16.00;100115.00;;;;5064342;28;20055;-65
2022/04/01 02:58:39;;;;;;;1.70;0.80;;;16.80;39.40;16.00;100122.00;;;;5064312;28;20059;-66
2022/04/01 03:01:25;;;;;;;1.58;0.50;;;16.80;39.40;16.00;100126.00;;;;5058943;28;20479;-65
2022/04/01 03:04:11;;;;;;;0.50;0.40;;;16.80;39.40;15.90;100125.00;;;;5058882;28;20041;-65
2022/04/01 03:06:58;;;;;;;0.70;0.50;;;16.80;39.30;16.00;100109.00;;;;5058505;28;20043;-66
2022/04/01 03:09:44;;;;;;;0.57;0.43;;;16.80;39.30;15.90;100111.00;;;;5052736;28;20387;-65
2022/04/01 03:12:30;;;;;;;0.40;0.40;;;16.80;39.40;15.90;100119.00;;;;5050242;28;20072;-66
2022/04/01 03:15:17;;;;;;;1.35;0.70;;;16.70;39.30;15.90;100129.00;;;;5052883;28;20486;-65
2022/04/01 03:18:04;;;;;;;0.60;0.50;;;16.70;39.20;15.90;100119.00;;;;5056041;28;20077;-65
2022/04/01 03:20:50;;;;;;;0.57;0.40;;;16.80;39.30;15.90;100126.00;;;;5058575;28;20493;-65
2022/04/01 03:23:41;;;;;;;1.05;0.70;;;16.80;39.40;15.90;100125.00;;;;5056259;28;20047;-65
2022/04/01 03:26:27;;;;;;;1.00;0.60;;;16.70;39.30;15.90;100130.00;;;;5048723;28;20127;-65
2022/04/01 03:29:13;;;;;;;0.63;0.47;;;16.70;39.30;15.90;100137.00;;;;5055583;28;20036;-65
2022/04/01 03:31:59;;;;;;;1.55;0.52;;;16.70;39.30;15.90;100133.00;;;;5058698;28;20091;-66
2022/04/01 03:34:45;;;;;;;1.38;0.63;;;16.70;39.30;15.90;100133.00;;;;5056789;28;20548;-65
2022/04/01 03:37:33;;;;;;;0.30;0.30;;;16.70;39.30;15.90;100138.00;;;;5056794;28;20051;-66
2022/04/01 03:40:20;;;;;;;1.00;0.45;;;16.70;39.30;15.90;100142.00;;;;5052752;28;20072;-66
2022/04/01 03:43:06;;;;;;;1.70;0.65;;;16.70;39.20;15.90;100149.00;;;;5038991;28;20045;-65
2022/04/01 03:45:53;;;;;;;1.95;0.60;;;16.70;39.30;15.90;100156.00;;;;5046459;28;20044;-66
2022/04/01 03:48:44;;;;;;;1.08;0.68;;;16.70;39.30;15.90;100147.00;;;;5049654;28;20040;-66
2022/04/01 03:51:32;;;;;;;0.68;0.68;;;16.70;39.30;15.90;100153.00;;;;5042053;28;20040;-66
2022/04/01 03:54:18;;;;;;;0.88;0.50;;;16.70;39.30;15.90;100146.00;;;;5058135;28;20071;-66
2022/04/01 03:57:05;;;;;;;0.40;0.40;;;16.70;39.30;15.90;100147.00;;;;5065229;28;20123;-66
2022/04/01 03:59:54;;;;;;;1.35;0.63;;;16.70;39.30;15.90;100149.00;;;;5052384;28;20049;-66
2022/04/01 04:02:44;;;;;;;0.60;0.60;;;16.70;39.30;15.90;100157.00;;;;5068500;28;20076;-66
2022/04/01 04:05:32;;;;;;;0.80;0.65;;;16.70;39.30;15.90;100156.00;;;;5066889;28;20367;-65
2022/04/01 04:08:20;;;;;;;0.60;0.57;;;16.70;39.30;15.90;100163.00;;;;5041778;28;20520;-66
2022/04/01 04:11:06;;;;;;;0.50;0.50;;;16.70;39.30;15.90;100164.00;;;;5047665;28;20048;-66
2022/04/01 04:13:53;;;;;;;0.82;0.40;;;16.70;39.40;15.90;100164.00;;;;5045174;28;20483;-66
2022/04/01 04:16:46;;;;;;;1.15;0.55;;;16.70;39.40;15.90;100167.00;;;;5093626;28;20079;-66
2022/04/01 04:19:56;;;;;;;0.90;0.52;;;16.70;39.30;15.90;100164.00;;;;5065629;28;20036;-66
2022/04/01 04:23:06;;;;;;;0.68;0.50;;;16.70;39.30;15.80;100166.00;;;;5074455;28;20040;-66
2022/04/01 04:26:01;;;;;;;1.00;0.75;;;16.70;39.30;15.80;100167.00;;;;5082408;28;20052;-66
2022/04/01 04:28:49;;;;;;;0.55;0.50;;;16.70;40.00;15.80;100178.00;;;;5063449;28;20047;-66
2022/04/01 04:31:37;;;;;;;5.97;0.70;;;16.70;39.40;15.80;100179.00;;;;5064022;28;20110;-65
2022/04/01 04:34:23;;;;;;;0.47;0.47;;;16.70;39.30;15.80;100184.00;;;;5077268;28;20032;-65
2022/04/01 04:37:10;;;;;;;0.80;0.60;;;16.70;39.50;15.80;100185.00;;;;5034960;28;20043;-65
2022/04/01 04:39:56;;;;;;;0.60;0.50;;;16.70;39.40;15.80;100185.00;;;;5064158;28;20083;-66
2022/04/01 04:42:47;;;;;;;0.77;0.65;;;16.70;39.40;15.80;100188.00;;;;5059532;28;20102;-66
2022/04/01 04:45:33;;;;;;;0.65;0.50;;;16.70;39.40;15.80;100185.00;;;;5041448;28;20048;-65
2022/04/01 04:48:20;;;;;;;1.02;0.60;;;16.70;39.40;15.80;100190.00;;;;5050798;28;20040;-66
2022/04/01 04:51:07;;;;;;;0.50;0.45;;;16.60;39.40;15.80;100196.00;;;;5047049;28;20102;-66
2022/04/01 04:53:59;;;;;;;0.88;0.70;;;16.70;39.40;15.80;100197.00;;;;5047147;28;20045;-66
2022/04/01 04:56:45;;;;;;;1.40;0.68;;;16.70;39.50;15.80;100203.00;;;;5040692;28;20193;-66
2022/04/01 04:59:34;;;;;;;1.13;0.70;;;16.60;39.40;15.80;100211.00;;;;5047423;28;20575;-66
2022/04/01 05:02:55;;;;;;;1.58;0.65;;;16.60;39.40;15.80;100202.00;;;;5019826;28;20119;-65
2022/04/01 05:05:47;;;;;;;0.47;0.47;;;16.60;39.40;15.80;100213.00;;;;5046183;28;20482;-65
2022/04/01 05:08:44;;;;;;;1.52;0.50;;;16.60;39.30;15.80;100217.00;;;;5049285;28;20048;-66
2022/04/01 05:11:50;;;;;;;0.57;0.50;;;16.60;39.70;15.80;100225.00;;;;5039156;28;20052;-65
2022/04/01 05:15:08;;;;;;;1.20;0.70;;;16.60;39.40;15.80;100229.00;;;;5044085;28;20047;-66
2022/04/01 05:17:58;;;;;;;0.50;0.50;;;16.60;39.50;15.70;100227.00;;;;5057896;28;20048;-66
2022/04/01 05:21:04;;;;;;;0.68;0.60;;;16.60;39.40;15.70;100229.00;;;;5044989;28;20036;-66
2022/04/01 05:24:02;;;;;;;0.60;0.60;;;16.50;39.40;15.70;100236.00;;;;5063286;28;20091;-65
2022/04/01 05:26:52;;;;;;;0.93;0.70;;;16.60;39.40;15.70;100244.00;;;;5038762;28;20091;-66
2022/04/01 05:29:42;;;;;;;1.13;0.80;;;16.60;39.40;15.70;100251.00;;;;5040581;28;20037;-65
2022/04/01 05:32:34;;;;;;;0.80;0.70;;;16.60;39.40;15.70;100252.00;;;;5064349;28;20032;-66
2022/04/01 05:35:20;;;;;;;0.80;0.80;;;16.60;39.40;15.70;100242.00;;;;5044642;28;20045;-66
2022/04/01 05:38:10;;;;;;;1.67;0.60;;;16.60;39.40;15.70;100258.00;;;;5031404;28;20040;-66
2022/04/01 05:40:56;;;;;;;1.20;0.80;;;16.60;39.40;15.70;100259.00;;;;5059435;28;20490;-66
2022/04/01 05:43:42;;;;;;;0.88;0.70;;;16.60;39.40;15.70;100268.00;;;;5046871;28;20048;-66
2022/04/01 05:46:28;;;;;;;1.88;1.02;;;16.60;39.40;15.70;100263.00;;;;5042874;28;20514;-66
2022/04/01 05:49:15;;;;;;;1.20;0.80;;;16.90;39.60;15.70;100276.00;;;;5044146;28;20041;-66
2022/04/01 05:52:01;;;;;;;1.15;0.90;;;16.50;39.40;15.70;100266.00;;;;5042780;28;20048;-66
2022/04/01 05:54:47;;;;;;;1.38;0.88;;;16.60;39.50;15.70;100274.00;;;;5043220;28;20040;-66
2022/04/01 05:57:34;;;;;;;0.90;0.73;;;16.50;39.40;15.70;100284.00;;;;5048358;28;20059;-66
2022/04/01 06:00:20;;;;;;;1.48;0.85;;;16.50;39.30;15.70;100279.00;;;;5047407;28;20662;-66
2022/04/01 06:03:28;;;;;;;2.10;0.85;;;16.60;40.10;15.70;100284.00;;;;5043107;28;20107;-66
2022/04/01 06:06:28;;;;;;;1.10;0.57;;;16.50;39.40;15.70;100290.00;;;;5062599;28;20435;-66
2022/04/01 06:09:36;;;;;;;1.40;0.82;;;16.50;39.40;15.70;100291.00;;;;5057095;28;20437;-66
2022/04/01 06:12:38;;;;;;;0.98;0.88;;;16.50;39.30;15.70;100287.00;;;;5059901;28;20108;-65
2022/04/01 06:15:55;;;;;;;1.27;0.90;;;16.50;39.30;15.70;100294.00;;;;5056557;28;20152;-66
2022/04/01 06:19:04;;;;;;;0.95;0.82;;;16.50;39.40;15.70;100301.00;;;;5031925;28;20051;-65
2022/04/01 06:22:25;;;;;;;1.65;1.05;;;16.50;39.30;15.70;100301.00;;;;5053198;28;20048;-66
2022/04/01 06:25:13;;;;;;;0.88;0.75;;;16.50;39.30;15.70;100303.00;;;;5064877;28;20131;-65
2022/04/01 06:28:34;;;;;;;2.50;1.10;;;16.50;39.40;15.70;100305.00;;;;5047192;28;20107;-65
2022/04/01 06:31:22;;;;;;;1.85;1.02;;;16.50;39.30;15.70;100316.00;;;;5065735;28;20040;-65
2022/04/01 06:34:15;;;;;;;2.35;1.10;;;16.50;39.30;15.70;100312.00;;;;5045674;28;20049;-65
2022/04/01 06:37:04;;;;;;;2.05;1.15;;;16.60;39.30;15.70;100321.00;;;;5059986;28;20043;-66
2022/04/01 06:40:12;;;;;;;1.50;1.10;;;16.50;39.30;15.70;100316.00;;;;5038083;28;20045;-66
2022/04/01 06:42:58;;;;;;;1.27;0.90;;;16.50;39.30;15.60;100338.00;;;;5055137;28;20402;-65
2022/04/01 06:45:44;;;;;;;1.50;0.98;;;16.50;39.40;15.70;100336.00;;;;5058718;28;20044;-65
2022/04/01 06:48:31;;;;;;;1.63;1.20;;;16.50;39.40;15.60;100332.00;;;;5040465;28;20064;-65
2022/04/01 06:51:17;;;;;;;1.00;0.75;;;16.50;39.30;15.60;100333.00;;;;5061633;28;20062;-65
2022/04/01 06:54:03;;;;;;;2.65;1.27;;;16.50;39.30;15.60;100340.00;;;;5043112;28;20049;-65
2022/04/01 06:56:49;;;;;;;1.52;1.10;;;16.50;39.30;15.60;100351.00;;;;5053857;28;20052;-66
2022/04/01 06:59:35;;;;;;;1.52;1.00;;;16.50;39.30;15.60;100344.00;;;;5050049;28;20047;-65
2022/04/01 07:02:22;;;;;;;2.17;0.90;;;16.50;39.40;15.60;100357.00;;;;5061254;28;20045;-65
2022/04/01 07:05:09;;;;;;;1.23;0.80;;;16.50;39.30;15.60;100343.00;;;;5039097;28;20049;-65
2022/04/01 07:07:56;;;;;;;3.90;0.90;;;16.50;39.30;15.60;100354.00;;;;5038957;28;20520;-65
2022/04/01 07:10:42;;;;;;;1.75;0.70;;;16.50;39.30;15.60;100352.00;;;;5023038;28;20072;-65
2022/04/01 07:13:29;;;;;;;1.03;0.70;;;16.50;39.20;15.60;100357.00;;;;5058085;28;20417;-65
2022/04/01 07:16:15;;;;;;;1.17;0.80;;;16.50;39.30;15.60;100367.00;;;;5042112;28;20491;-65
2022/04/01 07:19:01;;;;;;;1.48;0.63;;;16.50;39.20;15.60;100367.00;;;;5051642;28;20036;-66
2022/04/01 07:21:47;;;;;;;1.27;0.75;;;16.50;39.30;15.60;100365.00;;;;5049518;28;20036;-65
2022/04/01 07:24:34;;;;;;;1.10;0.70;;;16.50;39.20;15.60;100371.00;;;;5052312;28;20117;-66
2022/04/01 07:27:21;;;;;;;1.10;0.77;;;16.50;39.20;15.60;100364.00;;;;5046397;28;20045;-65
2022/04/01 07:30:08;;;;;;;0.75;0.70;;;16.50;39.20;15.60;100371.00;;;;5045385;28;20533;-65
2022/04/01 07:32:57;;;;;;;0.93;0.73;;;16.50;39.20;15.60;100367.00;;;;5028030;28;20106;-65
2022/04/01 07:35:49;;;;;;;1.45;0.75;;;16.40;39.20;15.60;100374.00;;;;5041603;28;20516;-66
2022/04/01 07:38:38;;;;;;;1.95;0.93;;;16.40;39.20;15.60;100372.00;;;;5045711;28;20044;-65
2022/04/01 07:41:24;;;;;;;1.40;0.80;;;16.40;39.20;15.60;100372.00;;;;5056606;28;20044;-65
2022/04/01 07:44:10;;;;;;;1.83;0.52;;;16.40;39.20;15.60;100371.00;;;;5062085;28;20135;-65
2022/04/01 07:46:57;;;;;;;0.90;0.60;;;16.40;39.10;15.60;100375.00;;;;5048992;28;20464;-66
2022/04/01 07:49:43;;;;;;;0.70;0.63;;;16.40;39.10;15.60;100389.00;;;;5046439;28;20037;-65
2022/04/01 07:52:29;;;;;;;1.50;0.80;;;16.40;39.20;15.60;100387.00;;;;5061585;28;20033;-65
2022/04/01 07:55:16;;;;;;;1.75;0.82;;;16.40;39.20;15.60;100381.00;;;;5055610;28;20285;-65
2022/04/01 07:58:02;;;;;;;1.65;0.77;;;16.40;39.10;15.60;100394.00;;;;5053327;28;20282;-65
2022/04/01 08:00:48;;;;;;;2.17;0.90;;;16.40;39.10;15.60;100396.00;;;;5058560;28;20044;-65
2022/04/01 08:03:34;;;;;;;1.75;0.60;;;16.40;39.10;15.60;100390.00;;;;5064619;28;20044;-65
2022/04/01 08:06:20;;;;;;;1.20;0.60;;;16.40;39.10;15.60;100401.00;;;;5057310;28;20404;-65
2022/04/01 08:09:06;;;;;;;2.50;0.73;;;16.40;39.10;15.50;100408.00;;;;5057616;28;20044;-65
2022/04/01 08:11:53;;;;;;;1.38;0.57;;;16.40;39.10;15.50;100404.00;;;;5034585;28;20036;-65
2022/04/01 08:14:40;;;;;;;1.23;0.77;;;16.40;39.10;15.50;100404.00;;;;5052564;28;20068;-65
2022/04/01 08:17:26;;;;;;;1.17;0.63;;;16.40;39.20;15.50;100410.00;;;;5062597;28;20083;-65
2022/04/01 08:20:12;;;;;;;0.75;0.40;;;16.40;39.10;15.50;100409.00;;;;5059916;28;20045;-65
2022/04/01 08:22:58;;;;;;;2.33;0.88;;;16.40;39.10;15.50;100422.00;;;;5062031;28;20041;-65
2022/04/01 08:25:46;;;;;;;1.20;0.65;;;16.40;39.10;15.50;100421.00;;;;5055774;28;20406;-65
2022/04/01 08:28:32;;;;;;;1.15;0.65;;;16.40;39.20;15.50;100412.00;;;;5073032;28;20040;-65
2022/04/01 08:31:18;;;;;;;3.20;0.68;;;16.30;39.10;15.50;100418.00;;;;5056997;28;20087;-65
2022/04/01 08:34:04;;;;;;;2.95;0.90;;;16.40;39.20;15.50;100423.00;;;;5055841;28;20041;-65
2022/04/01 08:36:50;;;;;;;1.48;0.70;;;16.30;39.10;15.50;100428.00;;;;5058614;28;20387;-66
2022/04/01 08:39:36;;;;;;;1.42;0.70;;;16.40;39.20;15.50;100444.00;;;;5057999;28;20537;-65
2022/04/01 08:42:36;;;;;;;1.40;0.80;;;16.40;39.20;15.50;100446.00;;;;5061207;28;20045;-65
2022/04/01 08:45:22;;;;;;;2.67;1.00;;;16.30;39.20;15.50;100446.00;;;;5040513;28;20080;-65
2022/04/01 08:48:10;;;;;;;2.03;0.90;;;16.30;39.20;15.50;100443.00;;;;5059372;28;20049;-65
2022/04/01 08:50:56;;;;;;;3.17;1.00;;;16.30;39.20;15.40;100452.00;;;;5025823;28;20044;-65
2022/04/01 08:53:44;;;;;;;1.35;0.98;;;16.30;39.20;15.40;100456.00;;;;5060105;28;20478;-66
2022/04/01 08:56:30;;;;;;;1.83;0.63;;;16.30;39.30;15.40;100453.00;;;;5044379;28;20049;-65
2022/04/01 08:59:16;;;;;;;1.40;0.80;;;16.30;39.30;15.40;100455.00;;;;5061152;28;20048;-67
2022/04/01 09:02:08;;;;;;;1.20;0.93;;;16.30;39.30;15.40;100453.00;;;;5058885;28;20508;-66
2022/04/01 09:05:05;;;;;;;2.78;1.00;;;16.30;39.30;15.40;100474.00;;;;5031724;28;20060;-66
2022/04/01 09:08:08;;;;;;;1.92;1.10;;;16.30;39.30;15.40;100478.00;;;;5036210;28;20040;-66
2022/04/01 09:11:01;;;;;;;1.10;0.90;;;16.30;39.30;15.40;100476.00;;;;5043362;28;20106;-67
2022/04/01 09:13:50;;;;;;;3.60;1.00;;;16.30;39.30;15.40;100488.00;;;;5055736;28;20257;-67
2022/04/01 09:16:39;;;;;;;3.78;0.98;;;16.30;39.30;15.40;100486.00;;;;5049698;28;20032;-66
2022/04/01 09:19:32;;;;;;;2.17;1.17;;;16.30;40.00;15.40;100494.00;;;;5056906;28;20032;-66
2022/04/01 09:22:24;;;;;;;1.23;0.80;;;16.30;39.30;15.40;100495.00;;;;5059396;28;20052;-67
2022/04/01 09:25:18;;;;;;;1.08;0.88;;;16.30;39.30;15.40;100495.00;;;;5053902;28;20490;-67
2022/04/01 09:28:04;;;;;;;1.80;1.15;;;16.30;39.30;15.40;100496.00;;;;5065000;28;20398;-66
2022/04/01 09:31:12;;;;;;;1.63;1.08;;;16.30;39.30;15.40;100500.00;;;;5051497;28;20095;-67
2022/04/01 09:33:59;;;;;;;0.93;0.85;;;16.30;39.30;15.40;100515.00;;;;5041260;28;20490;-67
2022/04/01 09:36:45;;;;;;;1.57;0.93;;;16.30;39.30;15.40;100498.00;;;;5055489;28;20047;-67
2022/04/01 09:39:31;;;;;;;4.57;1.20;;;16.30;39.40;15.40;100508.00;;;;5053716;28;20470;-66
2022/04/01 09:42:19;;;;;;;1.10;0.90;;;16.30;39.40;15.40;100511.00;;;;5064459;28;20036;-66
2022/04/01 09:45:06;;;;;;;2.25;1.25;;;16.30;39.40;15.40;100516.00;;;;5015932;28;20068;-67
2022/04/01 09:48:06;;;;;;;1.17;1.08;;;16.30;39.50;15.40;100518.00;;;;5038287;28;20487;-66
2022/04/01 09:50:58;;;;;;;2.45;1.23;;;16.30;39.40;15.40;100516.00;;;;5031778;28;20044;-67
2022/04/01 09:53:54;;;;;;;2.15;1.08;;;16.30;39.40;15.40;100513.00;;;;5041197;28;20062;-67
2022/04/01 09:56:45;;;;;;;1.20;1.05;;;16.30;39.40;15.40;100523.00;;;;5057625;28;20543;-66
2022/04/01 09:59:34;;;;;;;2.72;1.20;;;16.30;39.40;15.40;100517.00;;;;5061440;28;20037;-67
2022/04/01 10:02:20;;;;;;;1.88;1.20;;;16.30;39.40;15.40;100526.00;;;;5056047;28;20503;-67
2022/04/01 10:05:07;;;;;;;2.50;1.25;;;16.30;39.40;15.40;100534.00;;;;5042811;28;20115;-66
2022/04/01 10:07:54;;;;;;;2.53;1.30;;;16.30;39.40;15.40;100528.00;;;;5063560;28;20131;-66
2022/04/01 10:10:40;;;;;;;1.88;1.10;;;16.30;39.40;15.40;100541.00;;;;5029153;28;20128;-67
2022/04/01 10:13:30;;;;;;;1.83;1.08;;;16.30;39.50;15.40;100539.00;;;;5049954;28;20033;-67
2022/04/01 10:16:16;;;;;;;1.60;1.10;;;16.30;39.50;15.40;100548.00;;;;5053907;28;20387;-66
2022/04/01 10:19:11;;;;;;;2.42;1.33;;;16.30;39.50;15.40;100553.00;;;;5047639;28;20040;-66
2022/04/01 10:21:58;;;;;;;2.63;1.15;;;16.30;39.50;15.40;100558.00;;;;5049128;28;20093;-67
2022/04/01 10:24:45;;;;;;;1.58;1.17;;;16.30;39.50;15.40;100557.00;;;;5057390;28;20508;-67
2022/04/01 10:27:41;;;;;;;2.80;1.08;;;16.30;39.50;15.40;100558.00;;;;5045148;28;20043;-66
2022/04/01 10:30:28;;;;;;;0.98;0.82;;;16.30;39.50;15.40;100558.00;;;;5070228;28;20098;-67
2022/04/01 10:33:20;;;;;;;1.45;1.10;;;16.30;39.60;15.40;100565.00;;;;5034361;28;20044;-67
2022/04/01 10:36:34;;;;;;;2.40;1.48;;;16.30;39.60;15.40;100565.00;;;;5031299;28;20052;-67
2022/04/01 10:39:20;;;;;;;1.70;1.23;;;16.30;39.60;15.40;100562.00;;;;5056286;28;20478;-67
2022/04/01 10:42:11;;;;;;;2.00;1.10;;;16.30;39.50;15.40;100567.00;;;;5061710;28;20048;-67
2022/04/01 10:45:05;;;;;;;2.30;1.27;;;16.30;39.50;15.40;100577.00;;;;5065236;28;20103;-66
2022/04/01 10:54:35;;;;;;;1.77;0.88;;;16.30;39.50;15.40;100579.00;;;;5064725;28;19922;-66
2022/04/01 10:57:29;;;;;;;1.38;1.10;;;16.30;39.40;15.40;100576.00;;;;5039357;28;20049;-67
2022/04/01 11:00:17;;;;;;;1.73;0.95;;;16.30;39.40;15.40;100590.00;;;;5052235;28;20045;-67
2022/04/01 11:03:26;;;;;;;1.58;1.00;;;16.30;39.50;15.40;100590.00;;;;5046942;28;20165;-67
2022/04/01 11:06:22;;;;;;;;;;;16.30;39.50;15.30;100589.00;;;;5073505;28;20156;-67
2022/04/01 11:09:08;;;;;;;1.63;1.20;;;16.30;39.60;15.30;100589.00;;;;5075722;28;20413;-66
2022/04/01 11:12:20;;;;;;;1.88;1.20;;;16.30;39.50;15.30;100597.00;;;;5042320;28;20059;-67
2022/04/01 11:15:08;;;;;;;2.80;1.17;;;16.30;39.50;15.30;100597.00;;;;5054346;28;20041;-66
2022/04/01 11:17:57;;;;;;;1.58;1.08;;;16.20;40.20;15.30;100600.00;;;;5060231;28;20045;-66
2022/04/01 11:20:55;;;;;;;1.95;1.50;;;16.20;39.50;15.30;100604.00;;;;5060588;28;20498;-66
2022/04/01 11:23:41;;;;;;;3.17;1.20;;;16.20;39.50;15.30;100602.00;;;;5033406;28;20036;-66
2022/04/01 11:26:41;;;;;;;1.75;1.08;;;16.20;39.60;15.40;100607.00;;;;5042462;28;20053;-66
2022/04/01 11:29:27;;;;;;;1.15;1.00;;;16.20;39.60;15.30;100605.00;;;;5049649;28;20497;-67
2022/04/01 11:32:14;;;;;;;1.25;1.00;;;16.30;39.70;15.40;100608.00;;;;5054674;28;20045;-66
2022/04/01 11:35:00;;;;;;;2.03;1.33;;;16.20;39.70;15.40;100610.00;;;;5032236;28;20048;-67
2022/04/01 11:37:46;;;;;;;1.67;1.30;;;16.30;39.80;15.40;100610.00;;;;5035183;28;20523;-66
2022/04/01 11:40:34;;;;;;;2.17;1.38;;;16.30;39.80;15.40;100610.00;;;;5044074;28;20038;-67
2022/04/01 11:43:21;;;;;;;2.67;1.60;;;16.30;39.80;15.40;100611.00;;;;5069599;28;20036;-66
2022/04/01 11:46:09;;;;;;;1.88;1.40;;;16.30;39.80;15.40;100609.00;;;;5043102;28;20099;-66
2022/04/01 11:48:57;;;;;;;2.38;1.27;;;16.30;39.80;15.40;100603.00;;;;5018378;28;20462;-66
2022/04/01 11:51:43;;;;;;;1.67;1.30;;;16.30;39.90;15.40;100604.00;;;;5044132;28;20153;-66
2022/04/01 11:54:29;;;;;;;3.25;1.50;;;16.30;39.90;15.40;100604.00;;;;5043382;28;20486;-66
2022/04/01 11:57:15;;;;;;;2.03;1.27;;;16.30;39.80;15.40;100605.00;;;;5048725;28;20055;-68
2022/04/01 12:00:03;;;;;;;1.67;1.38;;;16.30;39.80;15.40;100601.00;;;;5052816;28;20056;-66
2022/04/01 12:02:52;;;;;;;3.00;1.63;;;16.30;39.80;15.40;100599.00;;;;5064156;28;20080;-66
2022/04/01 12:05:41;;;;;;;3.20;1.73;;;16.30;39.80;15.40;100595.00;;;;5064375;28;20647;-66
2022/04/01 12:08:41;;;;;;;2.70;1.60;;;16.30;39.80;15.40;100603.00;;;;5082048;28;20166;-66
2022/04/01 12:11:28;;;;;;;2.45;1.40;;;16.30;39.90;15.40;100590.00;;;;5073851;28;20123;-66
2022/04/01 12:14:23;;;;;;;2.65;1.60;;;16.30;39.90;15.40;100596.00;;;;5074172;28;20113;-66
2022/04/01 12:17:10;;;;;;;3.95;1.60;;;16.30;40.00;15.40;100596.00;;;;5047342;28;20501;-66
2022/04/01 12:20:13;;;;;;;2.08;1.70;;;16.30;40.00;15.40;100603.00;;;;5076792;28;20050;-66
2022/04/01 12:22:59;;;;;;;2.00;1.40;;;16.30;40.10;15.40;100601.00;;;;5055663;28;20472;-66
2022/04/01 12:25:48;;;;;;;5.82;1.67;;;16.30;39.90;15.40;100599.00;;;;5060340;28;20036;-66
2022/04/01 12:28:40;;;;;;;2.15;1.55;;;16.30;40.00;15.40;100602.00;;;;5076941;28;20385;-66
2022/04/01 12:31:27;;;;;;;2.63;1.58;;;16.30;40.00;15.40;100591.00;;;;5074401;28;20264;-66
2022/04/01 12:34:14;;;;;;;4.72;1.63;;;16.30;40.00;15.40;100592.00;;;;5062694;28;20044;-66